Time;durP1;ratioP1;P1;durP2;ratioP2;P2;SDS_P1;SDS_P2;PMS_P1;PMS_P2;Temp;Humidity;BMP_temperature;BMP_pressure;BME280_temperature;BME280_humidity;BME280_pressure;Samples;Min_cycle;Max_cycle;Signal;HPM_P1;HPM_P2
2020/12/17 00:00:35;;;;;;;44.73;27.52;;;;;;;0.07;85.97;97443.94;1795478;79;21196;-82
2020/12/17 00:03:04;;;;;;;44.83;25.70;;;;;;;0.16;85.92;97455.03;1795610;79;21124;-82
2020/12/17 00:05:31;;;;;;;45.05;28.50;;;;;;;0.22;85.81;97445.93;1795681;80;21143;-82
2020/12/17 00:07:58;;;;;;;48.33;28.83;;;;;;;0.30;85.77;97444.98;1795465;79;21123;-82
2020/12/17 00:10:25;;;;;;;51.35;29.87;;;;;;;0.36;85.68;97439.48;1795414;79;21134;-82
2020/12/17 00:12:52;;;;;;;91.53;51.23;;;;;;;0.42;85.56;97439.50;1795118;79;21495;-82
2020/12/17 00:15:21;;;;;;;60.23;37.80;;;;;;;0.45;85.48;97443.05;1795491;79;21147;-82
2020/12/17 00:17:52;;;;;;;56.55;33.53;;;;;;;0.45;85.29;97433.92;1795800;80;21183;-82
2020/12/17 00:20:23;;;;;;;58.75;32.10;;;;;;;0.43;85.12;97434.63;1795644;80;21164;-82
2020/12/17 00:22:50;;;;;;;53.35;32.95;;;;;;;0.40;85.01;97436.79;1795458;79;21092;-82
2020/12/17 00:25:18;;;;;;;82.02;44.98;;;;;;;0.40;85.01;97431.07;1795489;79;21134;-82
2020/12/17 00:27:47;;;;;;;60.45;35.58;;;;;;;0.42;84.97;97434.28;1795427;79;21124;-82
2020/12/17 00:30:17;;;;;;;64.70;35.43;;;;;;;0.43;84.95;97428.10;1795670;80;21197;-82
2020/12/17 00:32:48;;;;;;;49.55;31.40;;;;;;;0.46;84.93;97431.63;1795591;79;21150;-82
2020/12/17 00:35:17;;;;;;;44.75;27.62;;;;;;;0.49;84.84;97431.23;1795518;79;21496;-82
2020/12/17 00:37:44;;;;;;;48.00;29.55;;;;;;;0.48;84.76;97431.42;1795537;80;21150;-82
2020/12/17 00:40:14;;;;;;;42.62;26.70;;;;;;;0.47;84.71;97428.51;1795405;80;21135;-82
2020/12/17 00:42:47;;;;;;;27.15;16.42;;;;;;;0.48;84.64;97425.70;1795327;80;21130;-83
2020/12/17 00:45:16;;;;;;;45.73;25.90;;;;;;;0.47;84.50;97429.31;1795614;79;21151;-83
2020/12/17 00:47:44;;;;;;;44.88;23.98;;;;;;;0.31;84.30;97427.03;1795529;79;21131;-83
2020/12/17 00:50:12;;;;;;;45.23;22.93;;;;;;;0.17;84.44;97424.85;1792340;80;21143;-82
2020/12/17 00:52:41;;;;;;;48.10;26.07;;;;;;;0.07;84.64;97426.19;1792065;80;21269;-82
2020/12/17 00:55:10;;;;;;;48.17;27.02;;;;;;;0.02;84.82;97428.56;1792084;80;21257;-83
2020/12/17 00:57:37;;;;;;;44.33;24.18;;;;;;;0.04;85.03;97420.86;1792036;80;21499;-82
2020/12/17 01:00:07;;;;;;;39.58;24.50;;;;;;;0.10;85.15;97421.88;1792091;80;21294;-82
2020/12/17 01:02:35;;;;;;;39.58;25.45;;;;;;;0.14;85.22;97420.50;1792086;80;21131;-82
2020/12/17 01:05:05;;;;;;;46.48;28.32;;;;;;;0.19;85.30;97422.85;1792094;80;21135;-82
2020/12/17 01:07:32;;;;;;;32.45;18.67;;;;;;;0.27;85.31;97423.17;1792221;80;21261;-83
2020/12/17 01:09:59;;;;;;;46.85;26.75;;;;;;;0.29;85.26;97419.41;1792034;80;21147;-83
2020/12/17 01:12:27;;;;;;;47.20;25.82;;;;;;;0.33;85.24;97421.62;1791690;80;21131;-83
2020/12/17 01:14:53;;;;;;;49.20;28.23;;;;;;;0.34;85.23;97419.31;1792047;80;21507;-82
2020/12/17 01:17:20;;;;;;;39.95;25.55;;;;;;;0.33;85.24;97418.52;1792064;80;21142;-82
2020/12/17 01:19:48;;;;;;;41.48;25.20;;;;;;;0.35;85.33;97423.03;1792025;80;21289;-83
2020/12/17 01:22:15;;;;;;;41.42;25.82;;;;;;;0.36;85.28;97414.20;1792285;80;21278;-82
2020/12/17 01:24:44;;;;;;;40.23;24.00;;;;;;;0.40;85.21;97414.62;1792384;80;21131;-82
2020/12/17 01:27:10;;;;;;;45.20;27.22;;;;;;;0.43;85.18;97421.58;1792198;80;21519;-83
2020/12/17 01:29:37;;;;;;;41.00;25.43;;;;;;;0.41;85.07;97419.64;1792062;80;21510;-82
2020/12/17 01:32:04;;;;;;;45.17;27.62;;;;;;;0.41;85.05;97427.46;1792198;80;21542;-82
2020/12/17 01:34:31;;;;;;;45.98;26.07;;;;;;;0.39;85.03;97417.73;1792129;80;21146;-82
2020/12/17 01:36:59;;;;;;;37.83;25.15;;;;;;;0.39;85.01;97420.33;1792215;80;21138;-82
2020/12/17 01:39:26;;;;;;;36.30;23.02;;;;;;;0.38;85.02;97423.14;1792097;80;21305;-82
2020/12/17 01:41:55;;;;;;;38.33;23.57;;;;;;;0.40;85.02;97421.14;1791873;80;21290;-82
2020/12/17 01:44:22;;;;;;;40.70;25.65;;;;;;;0.42;84.96;97421.75;1792065;80;21131;-83
2020/12/17 01:46:50;;;;;;;38.70;25.85;;;;;;;0.35;84.94;97412.59;1792106;80;21108;-82
2020/12/17 01:49:22;;;;;;;33.40;21.23;;;;;;;0.35;84.87;97409.98;1763456;80;21238;-82
2020/12/17 01:51:53;;;;;;;31.20;19.07;;;;;;;0.38;84.89;97402.27;1791595;80;21120;-82
2020/12/17 01:54:21;;;;;;;;;;;;;;;0.38;84.82;97407.49;1794694;80;21486;-82
2020/12/17 01:56:55;;;;;;;34.78;21.15;;;;;;;0.36;84.87;97404.27;1792151;80;20127;-82
2020/12/17 01:59:25;;;;;;;46.95;25.62;;;;;;;0.26;84.71;97404.63;1791101;80;21151;-82
2020/12/17 02:01:55;;;;;;;39.13;23.73;;;;;;;0.16;84.67;97403.69;1792321;80;21116;-82
2020/12/17 02:04:25;;;;;;;49.60;29.10;;;;;;;0.14;84.65;97410.91;1792270;80;21539;-83
2020/12/17 02:06:52;;;;;;;49.23;30.02;;;;;;;0.14;84.69;97408.77;1792261;80;21115;-82
2020/12/17 02:09:20;;;;;;;46.88;28.30;;;;;;;0.17;84.81;97417.53;1792126;80;21147;-83
2020/12/17 02:11:57;;;;;;;53.05;31.60;;;;;;;0.19;84.81;97405.10;1791834;80;21626;-83
2020/12/17 02:14:26;;;;;;;47.70;29.25;;;;;;;0.14;84.71;97413.51;1792065;80;21301;-82
2020/12/17 02:16:55;;;;;;;51.20;30.25;;;;;;;0.08;84.66;97411.66;1792238;80;21281;-83
2020/12/17 02:19:22;;;;;;;46.35;30.70;;;;;;;0.10;84.78;97417.47;1792269;80;21285;-82
2020/12/17 02:21:50;;;;;;;45.95;28.80;;;;;;;0.17;84.84;97419.64;1792178;80;21139;-82
2020/12/17 02:24:24;;;;;;;47.43;28.45;;;;;;;0.21;84.79;97416.94;1792190;80;21111;-82
2020/12/17 02:26:53;;;;;;;42.75;26.93;;;;;;;0.20;84.68;97403.60;1792159;80;21132;-82
2020/12/17 02:29:21;;;;;;;44.88;26.93;;;;;;;0.21;84.66;97398.69;1792354;80;21143;-82
2020/12/17 02:31:48;;;;;;;43.52;27.50;;;;;;;0.23;84.66;97397.99;1792128;80;21177;-82
2020/12/17 02:34:15;;;;;;;42.38;27.42;;;;;;;0.24;84.57;97406.62;1792136;80;21261;-82
2020/12/17 02:36:42;;;;;;;39.78;22.62;;;;;;;0.25;84.55;97406.92;1792219;80;21274;-82
2020/12/17 02:39:09;;;;;;;41.37;25.25;;;;;;;0.19;84.33;97412.92;1792261;80;21515;-82
2020/12/17 02:41:37;;;;;;;43.73;26.07;;;;;;;-0.07;84.11;97414.37;1791752;80;21144;-82
2020/12/17 02:44:05;;;;;;;43.85;26.05;;;;;;;-0.26;84.36;97415.05;1792230;80;21653;-82
2020/12/17 02:46:32;;;;;;;42.15;24.75;;;;;;;-0.36;84.60;97420.58;1792404;80;21281;-82
2020/12/17 02:48:59;;;;;;;45.15;24.95;;;;;;;-0.39;84.78;97413.65;1792075;80;21525;-82
2020/12/17 02:51:26;;;;;;;43.20;25.82;;;;;;;-0.39;84.96;97413.65;1792131;80;21487;-82
2020/12/17 02:53:53;;;;;;;37.63;24.07;;;;;;;-0.36;85.11;97408.05;1792168;80;21134;-82
2020/12/17 02:56:21;;;;;;;44.75;25.75;;;;;;;-0.34;85.25;97409.47;1792119;80;21632;-82
2020/12/17 02:58:48;;;;;;;43.40;26.25;;;;;;;-0.33;85.30;97408.97;1791705;80;21146;-82
2020/12/17 03:01:15;;;;;;;45.43;27.82;;;;;;;-0.35;85.42;97407.06;1775837;81;21169;-82
2020/12/17 03:03:42;;;;;;;44.18;25.80;;;;;;;-0.39;85.40;97405.34;1776117;81;21685;-82
2020/12/17 03:06:09;;;;;;;43.75;27.00;;;;;;;-0.41;85.36;97397.41;1775940;81;21514;-82
2020/12/17 03:08:37;;;;;;;39.08;24.92;;;;;;;-0.41;85.44;97407.33;1775846;81;21095;-82
2020/12/17 03:11:04;;;;;;;47.05;26.45;;;;;;;-0.38;85.68;97404.84;1775804;81;21150;-82
2020/12/17 03:13:31;;;;;;;37.50;23.07;;;;;;;-0.37;85.74;97403.84;1760144;80;21130;-81
2020/12/17 03:15:58;;;;;;;33.98;20.97;;;;;;;-0.36;85.72;97397.63;1757903;82;21156;-82
2020/12/17 03:18:25;;;;;;;37.20;21.82;;;;;;;-0.34;85.79;97395.64;1757907;82;21160;-82
2020/12/17 03:20:52;;;;;;;38.73;24.55;;;;;;;-0.30;85.89;97392.45;1757974;81;21155;-82
2020/12/17 03:23:19;;;;;;;35.78;21.02;;;;;;;-0.22;85.91;97385.01;1757743;82;21155;-82
2020/12/17 03:25:46;;;;;;;34.45;21.73;;;;;;;-0.15;85.82;97393.66;1757744;82;21138;-82
2020/12/17 03:28:13;;;;;;;29.98;19.52;;;;;;;-0.09;85.75;97382.48;1757782;81;21108;-82
2020/12/17 03:30:40;;;;;;;32.38;20.10;;;;;;;-0.04;85.64;97383.20;1757659;81;21190;-82
2020/12/17 03:33:07;;;;;;;34.80;19.75;;;;;;;0.01;85.60;97382.16;1757989;82;21151;-82
2020/12/17 03:35:34;;;;;;;38.40;20.10;;;;;;;0.03;85.39;97383.26;1757705;82;21531;-82
2020/12/17 03:38:01;;;;;;;35.28;21.40;;;;;;;0.04;85.31;97378.35;1757729;81;21499;-82
2020/12/17 03:40:29;;;;;;;46.95;27.02;;;;;;;-0.02;85.16;97378.60;1757738;82;21151;-82
2020/12/17 03:42:56;;;;;;;52.35;30.90;;;;;;;-0.11;85.12;97377.97;1780302;80;21120;-82
2020/12/17 03:45:23;;;;;;;42.98;27.48;;;;;;;-0.14;85.17;97382.73;1792107;80;21261;-82
2020/12/17 03:47:51;;;;;;;45.78;27.58;;;;;;;-0.16;85.30;97376.41;1792469;80;21123;-82
2020/12/17 03:50:18;;;;;;;41.92;25.23;;;;;;;-0.08;85.41;97371.56;1792043;80;21278;-82
2020/12/17 03:52:45;;;;;;;28.70;18.80;;;;;;;-0.02;85.44;97372.09;1792196;80;21657;-82
2020/12/17 03:55:13;;;;;;;34.38;21.20;;;;;;;0.01;85.41;97369.62;1792054;80;21151;-82
2020/12/17 03:57:40;;;;;;;37.73;21.75;;;;;;;0.02;85.40;97369.92;1792440;80;21276;-82
2020/12/17 04:00:07;;;;;;;33.53;19.23;;;;;;;0.04;85.44;97370.03;1792039;80;21139;-82
2020/12/17 04:02:35;;;;;;;42.50;22.73;;;;;;;-0.01;85.52;97348.43;1792145;80;21289;-82
2020/12/17 04:05:02;;;;;;;35.90;21.97;;;;;;;-0.01;85.52;97348.43;1792176;80;21150;-82
2020/12/17 04:07:29;;;;;;;34.43;21.50;;;;;;;0.07;85.28;97360.52;1792110;80;21261;-82
2020/12/17 04:09:56;;;;;;;41.90;24.82;;;;;;;0.02;85.17;97358.19;1792246;80;21269;-82
2020/12/17 04:12:23;;;;;;;36.13;21.40;;;;;;;-0.05;85.15;97351.63;1791856;80;21646;-82
2020/12/17 04:14:53;;;;;;;36.95;21.70;;;;;;;-0.07;85.23;97352.32;1792033;80;21630;-82
2020/12/17 04:17:20;;;;;;;33.28;19.70;;;;;;;-0.07;85.34;97346.61;1792366;80;21516;-82
2020/12/17 04:19:47;;;;;;;35.58;20.12;;;;;;;-0.03;85.38;97346.52;1792085;80;21152;-82
2020/12/17 04:22:16;;;;;;;33.75;20.55;;;;;;;0.02;85.40;97351.67;1792071;80;21178;-82
2020/12/17 04:24:48;;;;;;;41.05;24.25;;;;;;;0.04;85.35;97348.37;1792309;80;21717;-82
2020/12/17 04:27:15;;;;;;;36.30;19.62;;;;;;;0.05;85.35;97346.07;1792147;80;21096;-82
2020/12/17 04:29:43;;;;;;;39.10;23.35;;;;;;;0.04;85.29;97341.36;1792195;80;21151;-83
2020/12/17 04:32:11;;;;;;;39.40;24.47;;;;;;;0.01;85.26;97350.88;1792098;80;21253;-83
2020/12/17 04:34:38;;;;;;;38.92;22.45;;;;;;;-0.06;85.19;97345.61;1792124;80;21139;-82
2020/12/17 04:37:05;;;;;;;44.13;25.37;;;;;;;-0.03;85.30;97350.43;1792082;80;21128;-82
2020/12/17 04:39:32;;;;;;;44.48;25.37;;;;;;;-0.04;85.27;97345.41;1792114;80;21139;-82
2020/12/17 04:42:01;;;;;;;47.90;26.82;;;;;;;-0.07;85.31;97345.30;1791778;80;21285;-83
2020/12/17 04:44:29;;;;;;;42.43;26.60;;;;;;;-0.10;85.52;97343.59;1792194;80;21499;-82
2020/12/17 04:47:00;;;;;;;45.73;25.72;;;;;;;-0.12;85.38;97346.39;1792084;80;21642;-82
2020/12/17 04:49:50;;;;;;;37.85;22.52;;;;;;;-0.11;85.33;97349.30;1792801;80;21530;-82
2020/12/17 04:52:19;;;;;;;33.78;18.00;;;;;;;-0.11;85.28;97349.80;1795592;80;21092;-82
2020/12/17 04:54:46;;;;;;;34.30;20.15;;;;;;;-0.10;85.26;97350.91;1795438;79;21155;-82
2020/12/17 04:57:16;;;;;;;32.63;19.70;;;;;;;-0.09;85.19;97350.41;1795483;79;21131;-82
2020/12/17 04:59:49;;;;;;;36.63;21.87;;;;;;;-0.10;85.12;97350.91;1795542;79;21163;-82
2020/12/17 05:02:20;;;;;;;41.68;24.27;;;;;;;-0.09;85.11;97351.21;1795491;79;21455;-82
2020/12/17 05:04:51;;;;;;;44.77;24.95;;;;;;;-0.10;85.00;97361.33;1795397;80;21092;-81
2020/12/17 05:07:22;;;;;;;39.83;24.50;;;;;;;-0.11;84.96;97354.52;1795473;79;21151;-82
2020/12/17 05:09:50;;;;;;;;;;;;;;;-0.09;84.98;97365.55;1798145;79;21200;-81
2020/12/17 05:12:19;;;;;;;32.28;19.98;;;;;;;-0.09;84.94;97366.84;1795729;80;20119;-82
2020/12/17 05:14:47;;;;;;;31.93;19.17;;;;;;;-0.14;84.97;97367.09;1795607;80;21469;-82
2020/12/17 05:17:14;;;;;;;32.10;18.45;;;;;;;-0.14;84.97;97367.09;1768861;80;21151;-82
2020/12/17 05:19:42;;;;;;;41.20;23.07;;;;;;;-0.21;85.00;97367.08;1795387;80;21183;-82
2020/12/17 05:22:13;;;;;;;39.23;24.32;;;;;;;-0.34;85.03;97362.58;1795396;79;21112;-82
2020/12/17 05:24:47;;;;;;;42.55;24.95;;;;;;;-0.36;85.26;97368.98;1796105;79;21499;-82
2020/12/17 05:27:15;;;;;;;38.48;21.57;;;;;;;-0.33;85.48;97373.30;1795181;80;21124;-82
2020/12/17 05:29:43;;;;;;;30.62;18.00;;;;;;;-0.33;85.27;97378.52;1795719;80;21147;-82
2020/12/17 05:32:15;;;;;;;38.08;22.70;;;;;;;-0.54;85.19;97385.59;1795356;80;21108;-82
2020/12/17 05:34:43;;;;;;;36.53;21.57;;;;;;;-0.71;85.52;97388.43;1794504;80;21131;-82
2020/12/17 05:37:09;;;;;;;41.58;23.40;;;;;;;-0.78;85.82;97390.19;1795486;79;21134;-82
2020/12/17 05:39:44;;;;;;;37.65;21.45;;;;;;;-0.78;85.82;97390.19;1795495;80;21138;-82
2020/12/17 05:42:13;;;;;;;37.58;21.30;;;;;;;-0.76;85.95;97391.30;1795060;79;21238;-82
2020/12/17 05:44:40;;;;;;;35.05;21.40;;;;;;;-0.74;85.73;97397.13;1795865;80;21104;-82
2020/12/17 05:47:13;;;;;;;61.23;25.88;;;;;;;-0.86;85.62;97382.50;1795564;79;21150;-82
2020/12/17 05:49:41;;;;;;;70.20;29.92;;;;;;;-0.78;85.55;97390.19;1794880;80;21145;-82
2020/12/17 05:52:21;;;;;;;51.25;26.68;;;;;;;-0.85;85.60;97390.61;1792169;80;21266;-82
2020/12/17 05:55:00;;;;;;;40.15;22.73;;;;;;;-0.94;85.58;97391.25;1792348;80;21306;-82
2020/12/17 05:57:28;;;;;;;49.67;23.42;;;;;;;-1.06;85.84;97394.03;1792220;80;21253;-82
2020/12/17 06:00:06;;;;;;;41.10;22.98;;;;;;;-1.12;86.05;97392.68;1792248;80;21515;-82
2020/12/17 06:02:36;;;;;;;41.83;23.85;;;;;;;-1.19;86.15;97397.80;1792223;80;21091;-82
2020/12/17 06:05:07;;;;;;;33.55;18.57;;;;;;;-1.18;86.47;97397.30;1792649;80;21133;-82
2020/12/17 06:07:47;;;;;;;41.98;22.77;;;;;;;-1.16;86.50;97408.33;1792277;80;21500;-82
2020/12/17 06:10:29;;;;;;;42.08;23.35;;;;;;;-1.14;86.55;97405.04;1792409;80;21649;-82
2020/12/17 06:13:01;;;;;;;35.83;20.57;;;;;;;-1.11;86.44;97404.69;1791179;80;21269;-81
2020/12/17 06:15:32;;;;;;;33.42;19.82;;;;;;;-1.06;86.45;97408.84;1792189;80;21155;-82
2020/12/17 06:18:03;;;;;;;43.48;24.80;;;;;;;-1.07;86.37;97399.42;1792451;80;21265;-82
2020/12/17 06:20:34;;;;;;;36.10;21.93;;;;;;;-1.10;86.42;97412.31;1792451;80;21135;-82
2020/12/17 06:23:07;;;;;;;42.50;23.15;;;;;;;-1.06;86.52;97410.94;1792377;80;21163;-81
2020/12/17 06:25:37;;;;;;;37.93;21.37;;;;;;;-1.03;86.49;97416.27;1792170;80;21258;-82
2020/12/17 06:28:05;;;;;;;35.98;18.82;;;;;;;-1.04;86.43;97408.16;1792265;80;21277;-81
2020/12/17 06:30:34;;;;;;;34.40;17.95;;;;;;;-0.97;86.41;97420.25;1792062;80;21132;-81
2020/12/17 06:33:04;;;;;;;43.15;25.12;;;;;;;-0.93;86.42;97420.69;1792028;80;21310;-81
2020/12/17 06:35:40;;;;;;;39.48;23.50;;;;;;;-0.88;86.57;97421.42;1792493;80;21154;-81
2020/12/17 06:38:10;;;;;;;36.25;20.60;;;;;;;-0.84;86.69;97419.58;1791991;80;21653;-81
2020/12/17 06:40:40;;;;;;;31.97;20.08;;;;;;;-0.76;86.65;97425.14;1792077;80;21147;-81
2020/12/17 06:43:36;;;;;;;32.67;18.98;;;;;;;-0.76;86.65;97425.14;1792068;80;21307;-81
2020/12/17 06:46:04;;;;;;;34.23;19.75;;;;;;;-0.88;86.49;97409.20;1792344;80;21120;-82
2020/12/17 06:48:38;;;;;;;38.88;22.13;;;;;;;-0.88;86.49;97409.20;1792356;80;21281;-82
2020/12/17 06:51:40;;;;;;;41.55;23.57;;;;;;;-0.72;86.72;97431.08;1791954;80;21181;-82
2020/12/17 06:54:21;;;;;;;46.58;27.35;;;;;;;-0.68;86.67;97432.34;1792367;80;21269;-82
2020/12/17 06:57:11;;;;;;;48.28;28.05;;;;;;;-0.67;86.47;97435.25;1792058;80;21285;-82
2020/12/17 06:59:41;;;;;;;54.50;27.37;;;;;;;-0.67;86.47;97435.25;1791732;80;21142;-82
2020/12/17 07:02:09;;;;;;;45.45;26.87;;;;;;;-0.67;86.50;97442.26;1792216;80;21273;-82
2020/12/17 07:04:48;;;;;;;48.75;26.57;;;;;;;-0.67;86.48;97436.55;1792188;80;21163;-82
2020/12/17 07:07:25;;;;;;;48.25;27.62;;;;;;;-0.66;86.47;97438.16;1792388;80;21320;-82
2020/12/17 07:12:42;;;;;;;44.30;25.60;;;;;;;-0.62;86.49;97433.38;1877461;76;23392;-81
2020/12/17 07:15:36;;;;;;;40.20;24.60;;;;;;;-0.70;86.43;97433.03;1819356;79;21130;-81
2020/12/17 07:18:27;;;;;;;54.48;28.73;;;;;;;-0.70;86.41;97433.03;1819367;79;21621;-82
2020/12/17 07:21:08;;;;;;;46.53;27.17;;;;;;;-0.64;86.39;97431.47;1839748;77;21128;-82
2020/12/17 07:23:41;;;;;;;49.80;28.23;;;;;;;-0.64;86.39;97431.47;1852822;77;21621;-82
2020/12/17 07:26:15;;;;;;;41.60;25.17;;;;;;;-0.71;86.47;97419.67;1852901;77;21262;-82
2020/12/17 07:28:54;;;;;;;40.12;23.67;;;;;;;-0.58;86.57;97436.41;1852657;77;21092;-82
2020/12/17 07:31:28;;;;;;;46.70;26.85;;;;;;;-0.58;86.57;97436.41;1852407;77;21143;-82
2020/12/17 07:33:56;;;;;;;49.80;27.35;;;;;;;-0.55;86.77;97437.36;1801876;80;21444;-82
2020/12/17 07:36:47;;;;;;;48.95;28.65;;;;;;;-0.55;86.77;97437.36;1793286;80;21147;-82
2020/12/17 07:39:15;;;;;;;44.33;26.97;;;;;;;-0.53;86.74;97441.38;1793067;79;21120;-82
2020/12/17 07:41:42;;;;;;;45.15;24.45;;;;;;;-0.46;86.72;97440.93;1792514;80;21538;-82
2020/12/17 07:44:11;;;;;;;41.80;24.92;;;;;;;-0.36;86.68;97446.63;1793011;79;21169;-82
2020/12/17 07:46:42;;;;;;;41.05;23.75;;;;;;;-0.23;86.68;97445.13;1793392;79;21158;-82
2020/12/17 07:49:22;;;;;;;;;;;;;;;-0.14;86.56;97448.72;1795880;80;21417;-82
2020/12/17 07:51:51;;;;;;;45.33;25.10;;;;;;;-0.07;86.47;97444.84;1793026;80;20123;-82
2020/12/17 07:54:21;;;;;;;42.65;26.62;;;;;;;0.03;86.42;97441.41;1793295;79;21142;-82
2020/12/17 07:56:51;;;;;;;37.90;20.70;;;;;;;0.11;86.35;97441.73;1792724;80;21135;-82
2020/12/17 07:59:19;;;;;;;30.70;17.10;;;;;;;0.26;86.37;97452.36;1764457;80;21147;-82
2020/12/17 08:01:46;;;;;;;42.38;23.80;;;;;;;0.40;86.34;97448.02;1793120;80;21139;-82
2020/12/17 08:04:13;;;;;;;43.63;24.43;;;;;;;0.73;86.38;97447.39;1793083;79;21185;-82
2020/12/17 08:06:40;;;;;;;41.77;24.25;;;;;;;1.06;86.46;97444.38;1793261;79;21131;-82
2020/12/17 08:09:08;;;;;;;39.78;23.92;;;;;;;1.46;86.48;97445.75;1793035;80;21170;-82
2020/12/17 08:11:35;;;;;;;43.33;24.95;;;;;;;1.85;86.36;97441.05;1793038;80;21182;-83
2020/12/17 08:14:07;;;;;;;39.50;24.47;;;;;;;2.25;86.10;97435.27;1793566;79;21330;-83
2020/12/17 08:16:35;;;;;;;38.20;23.52;;;;;;;2.63;85.82;97438.45;1793578;79;21134;-83
2020/12/17 08:19:04;;;;;;;38.45;23.25;;;;;;;3.00;85.46;97430.86;1793522;79;21151;-83
2020/12/17 08:21:32;;;;;;;41.63;23.67;;;;;;;3.28;84.96;97431.30;1793469;80;21356;-83
2020/12/17 08:24:00;;;;;;;43.23;25.52;;;;;;;3.61;84.68;97438.92;1792943;79;21108;-83
2020/12/17 08:26:30;;;;;;;43.38;25.65;;;;;;;3.78;83.90;97436.56;1793008;79;21103;-83
2020/12/17 08:28:57;;;;;;;50.95;29.60;;;;;;;3.92;83.14;97438.06;1793314;79;21151;-83
2020/12/17 08:31:29;;;;;;;43.15;28.15;;;;;;;3.94;82.36;97441.30;1792903;79;21164;-83
2020/12/17 08:34:00;;;;;;;46.55;28.38;;;;;;;3.94;81.80;97439.16;1793036;79;21084;-83
2020/12/17 08:36:33;;;;;;;50.38;31.55;;;;;;;3.71;80.61;97439.25;1793263;79;21091;-83
2020/12/17 08:39:08;;;;;;;50.58;31.60;;;;;;;3.61;80.37;97440.23;1792945;80;21119;-83
2020/12/17 08:41:54;;;;;;;44.25;27.45;;;;;;;3.52;80.17;97440.22;1792671;79;21127;-83
2020/12/17 08:44:29;;;;;;;45.17;26.70;;;;;;;3.62;80.36;97443.66;1792946;79;21173;-83
2020/12/17 08:47:08;;;;;;;46.42;26.00;;;;;;;3.63;79.70;97443.95;1791680;80;21112;-83
2020/12/17 08:49:36;;;;;;;44.70;26.73;;;;;;;3.57;79.33;97442.48;1793097;79;21182;-83
2020/12/17 08:52:04;;;;;;;45.55;26.93;;;;;;;3.63;79.24;97440.02;1793006;79;21147;-83
2020/12/17 08:54:36;;;;;;;41.45;25.95;;;;;;;3.57;78.49;97439.86;1792938;80;21142;-83
2020/12/17 08:57:10;;;;;;;43.95;26.97;;;;;;;3.53;78.13;97449.69;1792942;79;21136;-83
2020/12/17 08:59:39;;;;;;;46.70;27.95;;;;;;;3.51;78.25;97436.77;1792648;80;21112;-83
2020/12/17 09:02:07;;;;;;;44.85;28.38;;;;;;;3.48;78.17;97442.44;1792835;80;21127;-83
2020/12/17 09:04:35;;;;;;;41.58;26.73;;;;;;;3.55;78.51;97444.52;1792677;80;21155;-83
2020/12/17 09:07:03;;;;;;;43.50;28.35;;;;;;;3.58;78.45;97444.09;1792792;80;21139;-83
2020/12/17 09:09:33;;;;;;;40.43;23.95;;;;;;;3.72;78.63;97441.37;1792623;80;21463;-83
2020/12/17 09:12:01;;;;;;;43.73;26.65;;;;;;;3.85;78.22;97445.20;1791337;80;21147;-83
2020/12/17 09:14:39;;;;;;;50.03;30.55;;;;;;;3.86;77.63;97442.36;1792126;80;21274;-83
2020/12/17 09:17:15;;;;;;;45.03;29.00;;;;;;;3.90;77.53;97437.98;1792149;80;21269;-83
2020/12/17 09:19:46;;;;;;;46.80;28.60;;;;;;;3.92;77.21;97437.27;1792142;80;21270;-83
2020/12/17 09:22:19;;;;;;;50.58;29.70;;;;;;;3.92;77.38;97434.13;1792217;80;21673;-83
2020/12/17 09:24:54;;;;;;;43.25;25.60;;;;;;;3.98;77.26;97428.55;1792035;80;21298;-83
2020/12/17 09:27:27;;;;;;;44.98;26.93;;;;;;;4.11;77.09;97434.47;1791911;80;21266;-83
2020/12/17 09:30:15;;;;;;;50.12;31.52;;;;;;;4.05;75.92;97427.45;1790662;80;21173;-83
2020/12/17 09:33:02;;;;;;;46.83;29.40;;;;;;;3.99;76.60;97421.77;1792209;80;21258;-83
2020/12/17 09:35:33;;;;;;;50.05;28.92;;;;;;;4.10;76.63;97419.75;1792310;80;21119;-83
2020/12/17 09:38:12;;;;;;;47.70;29.63;;;;;;;4.25;76.87;97415.98;1792071;80;21226;-83
2020/12/17 09:40:42;;;;;;;54.40;32.08;;;;;;;4.35;76.62;97414.42;1792226;80;21622;-83
2020/12/17 09:43:13;;;;;;;50.25;30.55;;;;;;;4.60;77.05;97410.93;1791720;80;21151;-83
2020/12/17 09:45:44;;;;;;;50.35;27.82;;;;;;;4.72;76.04;97411.28;1792130;80;21143;-83
2020/12/17 09:48:31;;;;;;;50.38;29.57;;;;;;;4.69;74.91;97404.37;1792309;80;21297;-83
2020/12/17 09:51:04;;;;;;;57.43;34.83;;;;;;;4.57;74.85;97408.23;1792144;80;21185;-83
2020/12/17 09:53:37;;;;;;;55.10;33.75;;;;;;;4.36;73.96;97403.41;1792050;80;21132;-83
2020/12/17 09:56:11;;;;;;;47.88;31.65;;;;;;;4.22;74.47;97404.06;1791951;80;21273;-83
2020/12/17 09:58:45;;;;;;;45.50;28.50;;;;;;;4.24;74.40;97402.56;1792127;80;21626;-83
2020/12/17 10:01:14;;;;;;;44.53;28.67;;;;;;;4.31;74.44;97401.97;1792145;80;21501;-83
2020/12/17 10:03:41;;;;;;;44.73;26.95;;;;;;;4.37;74.83;97398.48;1792330;80;21323;-84
2020/12/17 10:06:08;;;;;;;46.60;29.18;;;;;;;4.58;74.75;97398.02;1792271;80;21266;-83
2020/12/17 10:08:36;;;;;;;47.35;29.63;;;;;;;4.57;74.07;97400.88;1792100;80;21096;-83
2020/12/17 10:11:06;;;;;;;50.85;30.62;;;;;;;4.50;73.73;97398.30;1791954;80;21319;-83
2020/12/17 10:13:33;;;;;;;50.85;30.12;;;;;;;4.43;73.93;97394.97;1791894;80;21207;-84
2020/12/17 10:16:00;;;;;;;51.92;32.80;;;;;;;4.60;74.54;97397.80;1792087;80;21301;-83
2020/12/17 10:18:29;;;;;;;53.38;33.02;;;;;;;4.64;73.87;97391.08;1792031;80;21273;-83
2020/12/17 10:20:56;;;;;;;50.03;32.42;;;;;;;4.64;74.19;97394.50;1792020;80;21147;-84
2020/12/17 10:23:23;;;;;;;52.20;31.82;;;;;;;4.68;73.55;97395.69;1791977;80;21116;-84
2020/12/17 10:25:50;;;;;;;51.45;32.28;;;;;;;4.72;73.96;97402.61;1792027;80;21130;-83
2020/12/17 10:28:18;;;;;;;47.25;31.45;;;;;;;4.72;73.20;97396.84;1792338;80;21281;-83
2020/12/17 10:30:45;;;;;;;53.95;33.02;;;;;;;4.61;73.07;97398.09;1792029;80;21679;-84
2020/12/17 10:33:12;;;;;;;55.15;33.40;;;;;;;4.59;73.65;97395.69;1792138;80;21324;-83
2020/12/17 10:35:39;;;;;;;50.50;31.77;;;;;;;4.62;73.03;97390.50;1792059;80;21637;-83
2020/12/17 10:38:06;;;;;;;50.78;30.12;;;;;;;4.60;73.47;97395.98;1792154;80;21308;-84
2020/12/17 10:40:34;;;;;;;50.75;30.55;;;;;;;4.73;73.19;97401.06;1792090;80;21323;-84
2020/12/17 10:43:00;;;;;;;50.55;31.55;;;;;;;4.66;72.60;97389.86;1791694;80;21285;-84
2020/12/17 10:45:28;;;;;;;50.60;30.55;;;;;;;4.58;72.94;97397.22;1792007;80;21269;-84
2020/12/17 10:47:55;;;;;;;49.38;28.73;;;;;;;4.71;73.52;97393.92;1792154;80;21281;-84
2020/12/17 10:50:22;;;;;;;46.95;29.18;;;;;;;4.81;72.65;97393.92;1792023;80;21299;-84
2020/12/17 10:52:50;;;;;;;49.88;31.15;;;;;;;4.68;72.03;97405.39;1792275;80;21163;-84
2020/12/17 10:55:17;;;;;;;49.88;32.15;;;;;;;4.48;72.34;97399.84;1792086;80;21278;-84
2020/12/17 10:57:44;;;;;;;52.38;32.25;;;;;;;4.57;72.87;97408.75;1792024;80;21222;-84
2020/12/17 11:00:11;;;;;;;49.98;32.08;;;;;;;4.61;72.67;97404.66;1791943;80;21180;-84
2020/12/17 11:02:39;;;;;;;40.30;26.93;;;;;;;4.62;72.95;97400.49;1792045;80;21147;-84
2020/12/17 11:05:06;;;;;;;50.63;32.15;;;;;;;4.82;73.29;97394.21;1792294;80;21285;-84
2020/12/17 11:07:33;;;;;;;50.75;32.53;;;;;;;4.78;72.72;97388.58;1792013;80;21305;-84
2020/12/17 11:10:00;;;;;;;50.40;33.33;;;;;;;4.85;72.54;97397.70;1792033;80;21664;-84
2020/12/17 11:12:27;;;;;;;53.83;33.25;;;;;;;4.95;73.07;97397.98;1793305;80;21222;-84
2020/12/17 11:14:54;;;;;;;53.90;33.40;;;;;;;4.94;72.27;97393.75;1795316;79;21160;-84
2020/12/17 11:17:21;;;;;;;48.65;31.57;;;;;;;4.88;72.09;97394.63;1795378;79;21253;-84
2020/12/17 11:19:49;;;;;;;50.70;32.00;;;;;;;4.79;72.19;97388.09;1795270;80;21143;-84
2020/12/17 11:22:17;;;;;;;52.17;33.28;;;;;;;4.78;72.75;97389.89;1795388;79;21142;-84
2020/12/17 12:37:46;;;;;;;81.17;48.40;;;;;;;3.79;74.34;97414.06;1791745;80;21451;-83
2020/12/17 12:40:14;;;;;;;104.53;62.98;;;;;;;3.84;74.56;97410.30;1760931;81;21181;-83
2020/12/17 12:42:41;;;;;;;98.97;58.68;;;;;;;3.67;74.47;97411.06;1778026;80;21135;-83
2020/12/17 12:45:08;;;;;;;93.67;58.40;;;;;;;3.58;74.73;97413.14;1792254;80;21633;-83
2020/12/17 12:47:36;;;;;;;103.35;59.63;;;;;;;3.25;75.08;97406.33;1792122;80;21134;-83
2020/12/17 12:50:15;;;;;;;105.30;63.58;;;;;;;3.05;75.76;97406.13;1792147;80;21140;-83